createdAt,value
2023-03-05T00:01:19.119Z,101520.03
2023-03-05T00:03:46.676Z,101516.41
2023-03-05T00:06:13.463Z,101516.13
2023-03-05T00:08:40.234Z,101516.66
2023-03-05T00:11:12.364Z,101504.66
2023-03-05T00:13:39.557Z,101514.03
2023-03-05T00:16:12.090Z,101507.13
2023-03-05T00:18:38.758Z,101506.47
2023-03-05T00:21:17.282Z,101503.03
2023-03-05T00:23:43.883Z,101503.69
2023-03-05T00:26:10.453Z,101505.50
2023-03-05T00:28:36.993Z,101502.41
2023-03-05T00:31:03.719Z,101498.31
2023-03-05T00:33:30.282Z,101493.88
2023-03-05T00:35:57.380Z,101492.06
2023-03-05T00:38:23.924Z,101483.38
2023-03-05T00:40:51.412Z,101486.00
2023-03-05T00:43:18.124Z,101486.00
2023-03-05T00:45:44.674Z,101476.16
2023-03-05T00:48:11.156Z,101473.66
2023-03-05T00:50:37.858Z,101464.16
2023-03-05T00:53:04.446Z,101471.22
2023-03-05T00:55:30.935Z,101471.78
2023-03-05T00:57:57.826Z,101464.41
2023-03-05T01:00:24.500Z,101459.25
2023-03-05T01:02:51.012Z,101463.06
2023-03-05T01:05:17.643Z,101456.34
2023-03-05T01:07:44.184Z,101447.31
2023-03-05T01:10:11.922Z,101449.47
2023-03-05T01:12:39.659Z,101447.38
2023-03-05T01:15:06.906Z,101447.00
2023-03-05T01:17:34.517Z,101449.00
2023-03-05T01:20:01.143Z,101442.75
2023-03-05T01:22:27.668Z,101443.41
2023-03-05T01:24:54.391Z,101437.97
2023-03-05T01:27:20.997Z,101430.63
2023-03-05T01:29:47.560Z,101426.00
2023-03-05T01:32:14.072Z,101421.47
2023-03-05T01:34:41.938Z,101421.00
2023-03-05T01:37:09.401Z,101416.56
2023-03-05T01:39:36.837Z,101419.53
2023-03-05T01:42:04.028Z,101415.28
2023-03-05T01:44:32.204Z,101416.09
2023-03-05T01:46:58.793Z,101412.31
2023-03-05T01:49:33.863Z,101410.03
2023-03-05T01:52:09.292Z,101411.50
2023-03-05T01:54:43.716Z,101408.56
2023-03-05T01:57:31.995Z,101415.94
2023-03-05T02:00:04.027Z,101414.13
2023-03-05T02:02:30.810Z,101404.78
2023-03-05T02:05:11.102Z,101405.94
2023-03-05T02:07:40.153Z,101395.06
2023-03-05T02:10:17.448Z,101390.63
2023-03-05T02:12:44.248Z,101386.75
2023-03-05T02:15:12.193Z,101384.28
2023-03-05T02:17:39.189Z,101378.59
2023-03-05T02:20:10.363Z,101383.50
2023-03-05T02:22:36.910Z,101375.16
2023-03-05T02:25:16.307Z,101372.53
2023-03-05T02:27:50.276Z,101370.06
2023-03-05T02:30:16.911Z,101368.44
2023-03-05T02:32:43.462Z,101372.06
2023-03-05T02:35:10.203Z,101372.06
2023-03-05T02:37:36.786Z,101370.44
2023-03-05T02:40:03.800Z,101362.38
2023-03-05T02:42:33.548Z,101368.63
2023-03-05T02:45:01.188Z,101363.06
2023-03-05T02:47:28.064Z,101359.13
2023-03-05T02:49:55.138Z,101347.78
2023-03-05T02:52:23.291Z,101348.63
2023-03-05T02:54:50.475Z,101347.97
2023-03-05T02:57:17.421Z,101338.47
2023-03-05T02:59:44.432Z,101344.69
2023-03-05T03:02:10.960Z,101332.75
2023-03-05T03:04:37.574Z,101329.47
2023-03-05T03:07:04.364Z,101328.31
2023-03-05T03:09:30.930Z,101318.81
2023-03-05T03:11:57.474Z,101313.56
2023-03-05T03:14:24.051Z,101307.31
2023-03-05T03:16:50.602Z,101300.44
2023-03-05T03:19:19.803Z,101291.91
2023-03-05T03:21:46.382Z,101287.84
2023-03-05T03:24:12.923Z,101290.63
2023-03-05T03:26:39.414Z,101279.66
2023-03-05T03:29:05.946Z,101280.47
2023-03-05T03:31:32.515Z,101278.84
2023-03-05T03:33:59.074Z,101268.63
2023-03-05T03:36:25.817Z,101268.00
2023-03-05T03:38:52.300Z,101271.44
2023-03-05T03:41:19.436Z,101273.72
2023-03-05T03:43:45.944Z,101264.09
2023-03-05T03:46:12.460Z,101264.09
2023-03-05T03:48:39.068Z,101259.00
2023-03-05T03:51:07.015Z,101254.16
2023-03-05T03:53:33.973Z,101255.97
2023-03-05T03:56:00.501Z,101248.91
2023-03-05T03:58:27.084Z,101253.75
2023-03-05T04:00:53.602Z,101246.28
2023-03-05T04:03:20.084Z,101242.47
2023-03-05T04:05:47.955Z,101240.03
2023-03-05T04:08:14.555Z,101236.13
2023-03-05T04:10:41.158Z,101236.41
2023-03-05T04:13:07.877Z,101230.16
2023-03-05T04:15:34.849Z,101231.34
2023-03-05T04:18:01.368Z,101224.28
2023-03-05T04:20:27.927Z,101223.94
2023-03-05T04:22:54.409Z,101213.13
2023-03-05T04:25:21.017Z,101209.88
2023-03-05T04:27:47.535Z,101209.06
2023-03-05T04:30:14.893Z,101211.25
2023-03-05T04:32:41.829Z,101210.22
2023-03-05T04:35:08.744Z,101201.19
2023-03-05T04:37:35.265Z,101202.00
2023-03-05T04:40:01.866Z,101202.81
2023-03-05T04:42:28.391Z,101202.34
2023-03-05T04:44:54.874Z,101200.09
2023-03-05T04:47:21.671Z,101193.88
2023-03-05T04:49:48.241Z,101183.38
2023-03-05T04:52:15.506Z,101188.44
2023-03-05T04:54:44.094Z,101181.56
2023-03-05T04:57:10.662Z,101172.22
2023-03-05T04:59:38.577Z,101178.75
2023-03-05T05:02:05.531Z,101167.63
2023-03-05T05:04:33.300Z,101167.44
2023-03-05T05:06:59.831Z,101164.63
2023-03-05T05:09:26.329Z,101170.25
2023-03-05T05:11:52.860Z,101155.94
2023-03-05T05:14:19.580Z,101151.50
2023-03-05T05:16:46.230Z,101148.44
2023-03-05T05:19:12.833Z,101150.88
2023-03-05T05:21:39.641Z,101150.16
2023-03-05T05:24:06.519Z,101144.16
2023-03-05T05:26:33.039Z,101139.75
2023-03-05T05:28:59.599Z,101141.53
2023-03-05T05:31:26.133Z,101130.97
2023-03-05T05:33:52.724Z,101121.47
2023-03-05T05:36:21.536Z,101127.16
2023-03-05T05:38:48.661Z,101123.38
2023-03-05T05:41:17.319Z,101126.63
2023-03-05T05:43:43.915Z,101122.38
2023-03-05T05:46:15.067Z,101115.97
2023-03-05T05:48:42.103Z,101099.56
2023-03-05T05:51:11.468Z,101096.13
2023-03-05T05:53:38.943Z,101092.34
2023-03-05T05:56:06.705Z,101092.50
2023-03-05T05:58:33.840Z,101094.16
2023-03-05T06:01:00.380Z,101094.16
2023-03-05T06:03:26.965Z,101096.13
2023-03-05T06:05:53.726Z,101086.81
2023-03-05T06:08:20.429Z,101088.00
2023-03-05T06:10:54.362Z,101087.66
2023-03-05T06:13:21.056Z,101089.63
2023-03-05T06:15:59.447Z,101089.63
2023-03-05T06:18:26.170Z,101083.56
2023-03-05T06:21:00.452Z,101081.94
2023-03-05T06:23:27.980Z,101092.44
2023-03-05T06:25:55.577Z,101085.19
2023-03-05T06:28:22.145Z,101086.72
2023-03-05T06:30:48.737Z,101083.75
2023-03-05T06:33:15.456Z,101079.03
2023-03-05T06:35:42.220Z,101077.59
2023-03-05T06:38:09.436Z,101082.50
2023-03-05T06:40:39.478Z,101091.34
2023-03-05T06:43:06.341Z,101091.53
2023-03-05T06:45:32.923Z,101088.25
2023-03-05T06:47:59.561Z,101086.81
2023-03-05T06:50:26.092Z,101085.81
2023-03-05T06:52:52.637Z,101081.22
2023-03-05T06:55:19.407Z,101074.97
2023-03-05T06:57:45.969Z,101061.84
2023-03-05T07:00:13.560Z,101067.09
2023-03-05T07:02:40.530Z,101059.25
2023-03-05T07:05:08.041Z,101070.53
2023-03-05T07:07:34.663Z,101075.13
2023-03-05T07:10:01.493Z,101075.13
2023-03-05T07:12:28.227Z,101067.91
2023-03-05T07:14:54.740Z,101067.09
2023-03-05T07:17:21.265Z,101072.34
2023-03-05T07:19:47.792Z,101065.28
2023-03-05T07:22:14.274Z,101062.03
2023-03-05T07:24:40.821Z,101052.72
2023-03-05T07:27:07.455Z,101049.91
2023-03-05T07:29:34.018Z,101050.25
2023-03-05T07:32:00.677Z,101044.66
2023-03-05T07:34:27.468Z,101037.25
2023-03-05T07:36:54.082Z,101034.63
2023-03-05T07:39:20.642Z,101019.88
2023-03-05T07:41:49.703Z,101020.50
2023-03-05T07:44:17.590Z,101017.31
2023-03-05T07:46:44.591Z,101012.91
2023-03-05T07:49:11.374Z,101015.34
2023-03-05T07:51:37.938Z,101013.53
2023-03-05T07:54:04.548Z,101015.97
2023-03-05T07:56:35.868Z,101007.72
2023-03-05T07:59:06.195Z,101008.53
2023-03-05T08:01:33.524Z,101001.31
2023-03-05T08:04:00.199Z,100993.09
2023-03-05T08:06:27.441Z,100991.44
2023-03-05T08:08:54.060Z,100994.50
2023-03-05T08:11:21.697Z,100990.91
2023-03-05T08:13:48.427Z,100992.31
2023-03-05T08:16:18.137Z,100980.00
2023-03-05T08:18:45.483Z,100977.84
2023-03-05T08:21:35.531Z,100969.00
2023-03-05T08:24:05.553Z,100963.97
2023-03-05T08:26:34.094Z,100965.59
2023-03-05T08:29:00.711Z,100965.25
2023-03-05T08:31:27.896Z,100962.25
2023-03-05T08:33:56.231Z,100957.25
2023-03-05T08:36:22.848Z,100959.50
2023-03-05T08:38:50.627Z,100957.31
2023-03-05T08:41:18.460Z,100950.84
2023-03-05T08:43:45.105Z,100942.41
2023-03-05T08:46:13.537Z,100936.78
2023-03-05T08:48:40.560Z,100935.63
2023-03-05T08:51:09.216Z,100928.34
2023-03-05T08:53:35.807Z,100928.97
2023-03-05T08:56:02.522Z,100933.88
2023-03-05T08:58:29.088Z,100933.47
2023-03-05T09:00:56.438Z,100927.22
2023-03-05T09:03:23.114Z,100919.97
2023-03-05T09:05:50.120Z,100929.28
2023-03-05T09:08:17.278Z,100922.81
2023-03-05T09:10:44.324Z,100919.81
2023-03-05T09:13:11.508Z,100917.63
2023-03-05T09:15:39.085Z,100912.19
2023-03-05T09:18:05.807Z,100905.56
2023-03-05T09:20:33.303Z,100903.34
2023-03-05T09:22:59.805Z,100909.03
2023-03-05T09:25:26.726Z,100904.19
2023-03-05T09:27:53.231Z,100903.63
2023-03-05T09:30:20.472Z,100902.44
2023-03-05T09:32:47.098Z,100898.63
2023-03-05T09:35:13.776Z,100902.66
2023-03-05T09:37:40.372Z,100905.72
2023-03-05T09:40:07.716Z,100898.47
2023-03-05T09:42:52.522Z,100897.06
2023-03-05T09:45:51.689Z,100888.97
2023-03-05T09:48:25.867Z,100894.88
2023-03-05T09:51:20.892Z,100889.19
2023-03-05T09:54:02.297Z,100876.69
2023-03-05T09:56:36.099Z,100879.13
2023-03-05T09:59:14.774Z,100875.50
2023-03-05T10:01:43.769Z,100872.66
2023-03-05T10:04:15.437Z,100875.09
2023-03-05T10:06:53.124Z,100865.22
2023-03-05T10:09:21.007Z,100860.53
2023-03-05T10:11:59.973Z,100863.19
2023-03-05T10:14:30.762Z,100855.91
2023-03-05T10:17:32.877Z,100856.53
2023-03-05T10:20:28.635Z,100858.97
2023-03-05T10:23:10.282Z,100853.72
2023-03-05T10:26:13.689Z,100856.13
2023-03-05T10:28:47.268Z,100851.69
2023-03-05T10:31:29.447Z,100852.31
2023-03-05T10:34:12.444Z,100848.88
2023-03-05T10:36:56.222Z,100842.59
2023-03-05T10:39:54.785Z,100842.22
2023-03-05T10:42:51.187Z,100847.47
2023-03-05T10:45:26.535Z,100840.41
2023-03-05T10:48:28.933Z,100837.56
2023-03-05T10:51:02.170Z,100834.91
2023-03-05T10:53:43.731Z,100836.38
2023-03-05T10:56:12.008Z,100836.16
2023-03-05T10:58:38.492Z,100836.78
2023-03-05T11:01:11.083Z,100828.88
2023-03-05T11:03:50.682Z,100826.06
2023-03-05T11:06:39.478Z,100825.03
2023-03-05T11:09:29.928Z,100814.50
2023-03-05T11:12:12.546Z,100800.38
2023-03-05T11:15:01.993Z,100805.44
2023-03-05T11:18:03.042Z,100805.25
2023-03-05T11:20:36.626Z,100797.97
2023-03-05T11:23:10.426Z,100802.41
2023-03-05T11:26:01.418Z,100790.91
2023-03-05T11:28:33.719Z,100784.63
2023-03-05T11:31:25.565Z,100782.00
2023-03-05T11:34:04.552Z,100782.63
2023-03-05T11:36:32.604Z,100779.19
2023-03-05T11:39:08.164Z,100771.06
2023-03-05T11:41:40.084Z,100760.75
2023-03-05T11:44:32.010Z,100763.19
2023-03-05T11:47:16.462Z,100753.28
2023-03-05T11:49:46.334Z,100743.56
2023-03-05T11:52:24.824Z,100745.97
2023-03-05T11:55:08.964Z,100746.78
2023-03-05T11:57:43.574Z,100742.97
2023-03-05T12:00:16.814Z,100734.03
2023-03-05T12:02:43.916Z,100720.72
2023-03-05T12:05:17.043Z,100721.13
2023-03-05T12:07:49.421Z,100717.47
2023-03-05T12:10:22.647Z,100710.16
2023-03-05T12:12:54.167Z,100710.56
2023-03-05T12:15:50.000Z,100699.66
2023-03-05T12:18:54.184Z,100702.06
2023-03-05T12:21:33.241Z,100696.63
2023-03-05T12:24:02.869Z,100694.19
2023-03-05T12:26:53.647Z,100674.16
2023-03-05T12:29:44.630Z,100674.72
2023-03-05T12:32:25.476Z,100672.72
2023-03-05T12:34:59.296Z,100664.63
2023-03-05T12:37:25.860Z,100659.16
2023-03-05T12:40:05.016Z,100658.72
2023-03-05T12:42:31.535Z,100655.09
2023-03-05T12:45:10.075Z,100652.25
2023-03-05T12:47:44.392Z,100644.97
2023-03-05T12:50:29.065Z,100649.00
2023-03-05T12:53:10.276Z,100643.94
2023-03-05T12:55:46.006Z,100640.09
2023-03-05T12:58:25.992Z,100636.47
2023-03-05T13:01:04.338Z,100633.59
2023-03-05T13:03:35.564Z,100632.59
2023-03-05T13:06:04.928Z,100627.94
2023-03-05T13:08:37.306Z,100629.53
2023-03-05T13:11:20.456Z,100621.47
2023-03-05T13:13:51.252Z,100616.78
2023-03-05T13:16:29.259Z,100610.50
2023-03-05T13:19:02.764Z,100613.75
2023-03-05T13:21:31.928Z,100597.94
2023-03-05T13:24:01.171Z,100603.00
2023-03-05T13:26:39.875Z,100593.06
2023-03-05T13:29:21.855Z,100591.03
2023-03-05T13:32:03.343Z,100591.63
2023-03-05T13:34:46.245Z,100580.88
2023-03-05T13:37:21.107Z,100584.13
2023-03-05T13:39:50.715Z,100579.66
2023-03-05T13:42:20.320Z,100583.69
2023-03-05T13:44:57.648Z,100581.06
2023-03-05T13:47:29.993Z,100579.25
2023-03-05T13:50:00.094Z,100569.53
2023-03-05T13:52:30.860Z,100558.19
2023-03-05T13:54:59.390Z,100558.78
2023-03-05T13:57:36.589Z,100569.31
2023-03-05T14:00:06.617Z,100561.41
2023-03-05T14:02:33.672Z,100556.13
2023-03-05T14:05:00.627Z,100563.00
2023-03-05T14:07:38.261Z,100560.19
2023-03-05T14:10:25.046Z,100559.38
2023-03-05T14:12:51.834Z,100542.56
2023-03-05T14:15:24.756Z,100537.47
2023-03-05T14:17:52.571Z,100547.81
2023-03-05T14:20:28.992Z,100548.63
2023-03-05T14:22:59.852Z,100538.09
2023-03-05T14:25:37.694Z,100533.84
2023-03-05T14:28:26.311Z,100524.91
2023-03-05T14:30:56.252Z,100517.25
2023-03-05T14:33:26.039Z,100521.66
2023-03-05T14:35:53.973Z,100524.13
2023-03-05T14:38:25.217Z,100513.56
2023-03-05T14:40:51.906Z,100508.50
2023-03-05T14:43:18.473Z,100496.97
2023-03-05T14:45:45.130Z,100491.47
2023-03-05T14:48:14.062Z,100493.09
2023-03-05T14:50:51.816Z,100493.31
2023-03-05T14:53:31.228Z,100489.47
2023-03-05T14:55:57.761Z,100484.78
2023-03-05T14:58:35.584Z,100478.28
2023-03-05T15:01:02.294Z,100478.66
2023-03-05T15:03:28.870Z,100467.69
2023-03-05T15:05:58.271Z,100473.34
2023-03-05T15:08:31.075Z,100463.41
2023-03-05T15:10:58.897Z,100460.53
2023-03-05T15:13:25.776Z,100459.31
2023-03-05T15:15:53.133Z,100453.81
2023-03-05T15:18:21.668Z,100444.09
2023-03-05T15:20:49.458Z,100441.25
2023-03-05T15:23:16.234Z,100437.59
2023-03-05T15:25:42.971Z,100434.97
2023-03-05T15:28:09.512Z,100424.41
2023-03-05T15:30:40.658Z,100421.78
2023-03-05T15:33:10.338Z,100426.25
2023-03-05T15:35:37.080Z,100423.38
2023-03-05T15:38:04.388Z,100416.88
2023-03-05T15:40:31.462Z,100415.06
2023-03-05T15:42:59.561Z,100411.38
2023-03-05T15:45:26.784Z,100408.75
2023-03-05T15:47:53.858Z,100406.72
2023-03-05T15:50:21.834Z,100395.38
2023-03-05T15:52:49.240Z,100392.53
2023-03-05T15:55:18.273Z,100395.16
2023-03-05T15:57:47.385Z,100386.44
2023-03-05T16:00:16.487Z,100391.50
2023-03-05T16:02:43.043Z,100392.53
2023-03-05T16:05:10.067Z,100388.84
2023-03-05T16:07:39.224Z,100384.63
2023-03-05T16:10:07.055Z,100383.22
2023-03-05T16:12:40.837Z,100378.53
2023-03-05T16:15:15.390Z,100375.91
2023-03-05T16:17:44.882Z,100369.84
2023-03-05T16:20:12.727Z,100364.56
2023-03-05T16:22:39.410Z,100356.06
2023-03-05T16:25:06.821Z,100355.25
2023-03-05T16:27:33.779Z,100350.41
2023-03-05T16:30:00.392Z,100349.59
2023-03-05T16:32:27.023Z,100345.38
2023-03-05T16:34:53.578Z,100339.50
2023-03-05T16:37:23.142Z,100337.88
2023-03-05T16:39:50.183Z,100338.69
2023-03-05T16:42:16.915Z,100332.59
2023-03-05T16:44:44.778Z,100331.00
2023-03-05T16:47:15.100Z,100326.16
2023-03-05T16:49:41.785Z,100324.56
2023-03-05T16:52:20.820Z,100317.88
2023-03-05T16:54:48.023Z,100314.44
2023-03-05T16:57:14.769Z,100312.84
2023-03-05T16:59:41.588Z,100306.16
2023-03-05T17:02:08.299Z,100302.16
2023-03-05T17:04:34.935Z,100298.91
2023-03-05T17:07:03.464Z,100295.91
2023-03-05T17:09:30.527Z,100295.53
2023-03-05T17:11:57.049Z,100294.97
2023-03-05T17:14:23.615Z,100298.00
2023-03-05T17:16:50.287Z,100297.22
2023-03-05T17:19:16.842Z,100291.34
2023-03-05T17:21:43.719Z,100298.44
2023-03-05T17:24:10.498Z,100284.50
2023-03-05T17:26:37.773Z,100292.41
2023-03-05T17:29:05.225Z,100290.00
2023-03-05T17:31:32.220Z,100288.81
2023-03-05T17:33:58.789Z,100289.63
2023-03-05T17:36:25.360Z,100292.50
2023-03-05T17:38:53.975Z,100285.81
2023-03-05T17:41:21.898Z,100287.25
2023-03-05T17:43:48.811Z,100282.22
2023-03-05T17:46:16.859Z,100286.88
2023-03-05T17:48:43.716Z,100284.47
2023-03-05T17:51:13.038Z,100278.84
2023-03-05T17:53:40.447Z,100279.06
2023-03-05T17:56:09.612Z,100278.44
2023-03-05T17:58:36.588Z,100268.56
2023-03-05T18:01:04.686Z,100268.41
2023-03-05T18:03:31.279Z,100267.81
2023-03-05T18:05:57.847Z,100270.84
2023-03-05T18:08:24.581Z,100271.31
2023-03-05T18:10:51.109Z,100256.75
2023-03-05T18:13:17.718Z,100253.34
2023-03-05T18:15:47.680Z,100257.59
2023-03-05T18:18:16.238Z,100254.22
2023-03-05T18:20:42.894Z,100256.06
2023-03-05T18:23:11.351Z,100251.22
2023-03-05T18:25:37.900Z,100247.38
2023-03-05T18:28:08.110Z,100261.56
2023-03-05T18:30:35.523Z,100250.84
2023-03-05T18:33:02.082Z,100252.47
2023-03-05T18:35:29.477Z,100251.47
2023-03-05T18:37:56.646Z,100252.91
2023-03-05T18:40:25.589Z,100250.47
2023-03-05T18:42:52.089Z,100239.53
2023-03-05T18:45:21.136Z,100237.13
2023-03-05T18:47:49.066Z,100241.56
2023-03-05T18:50:18.565Z,100225.19
2023-03-05T18:52:45.430Z,100242.00
2023-03-05T18:55:17.832Z,100237.94
2023-03-05T18:57:44.485Z,100229.66
2023-03-05T19:00:15.173Z,100225.00
2023-03-05T19:02:41.711Z,100225.25
2023-03-05T19:05:09.335Z,100229.47
2023-03-05T19:07:38.054Z,100220.78
2023-03-05T19:10:10.007Z,100218.97
2023-03-05T19:12:45.501Z,100228.22
2023-03-05T19:15:13.509Z,100212.44
2023-03-05T19:17:40.500Z,100215.09
2023-03-05T19:20:10.374Z,100219.34
2023-03-05T19:22:36.997Z,100214.09
2023-03-05T19:25:04.077Z,100211.66
2023-03-05T19:27:30.714Z,100209.63
2023-03-05T19:29:58.105Z,100214.28
2023-03-05T19:32:24.639Z,100208.44
2023-03-05T19:34:55.592Z,100195.50
2023-03-05T19:37:22.296Z,100205.22
2023-03-05T19:39:48.853Z,100199.16
2023-03-05T19:42:15.610Z,100197.97
2023-03-05T19:44:42.283Z,100199.19
2023-03-05T19:47:08.849Z,100194.75
2023-03-05T19:49:36.059Z,100197.38
2023-03-05T19:52:04.187Z,100201.22
2023-03-05T19:54:30.713Z,100190.72
2023-03-05T19:56:58.942Z,100182.59
2023-03-05T19:59:25.667Z,100187.66
2023-03-05T20:01:52.624Z,100186.03
2023-03-05T20:04:22.392Z,100190.72
2023-03-05T20:06:48.999Z,100192.72
2023-03-05T20:09:16.319Z,100188.09
2023-03-05T20:11:43.527Z,100180.19
2023-03-05T20:14:10.129Z,100188.31
2023-03-05T20:16:37.836Z,100182.66
2023-03-05T20:19:07.322Z,100187.91
2023-03-05T20:21:37.199Z,100182.06
2023-03-05T20:24:09.512Z,100184.91
2023-03-05T20:26:38.819Z,100185.91
2023-03-05T20:29:05.639Z,100180.44
2023-03-05T20:31:37.175Z,100175.03
2023-03-05T20:34:10.151Z,100173.22
2023-03-05T20:36:36.797Z,100171.81
2023-03-05T20:39:05.529Z,100178.75
2023-03-05T20:41:34.650Z,100180.97
2023-03-05T20:44:01.171Z,100174.75
2023-03-05T20:46:30.880Z,100167.50
2023-03-05T20:49:00.122Z,100172.38
2023-03-05T20:51:39.146Z,100165.09
2023-03-05T20:54:08.687Z,100165.94
2023-03-05T20:56:36.137Z,100170.41
2023-03-05T20:59:06.193Z,100166.41
2023-03-05T21:01:35.429Z,100160.97
2023-03-05T21:04:02.693Z,100155.94
2023-03-05T21:06:30.816Z,100154.34
2023-03-05T21:08:58.414Z,100157.41
2023-03-05T21:11:25.415Z,100156.44
2023-03-05T21:13:52.142Z,100156.22
2023-03-05T21:16:22.439Z,100142.72
2023-03-05T21:18:49.537Z,100140.13
2023-03-05T21:21:16.036Z,100140.13
2023-03-05T21:23:42.797Z,100131.06
2023-03-05T21:26:09.326Z,100133.91
2023-03-05T21:28:36.140Z,100129.69
2023-03-05T21:31:09.252Z,100130.28
2023-03-05T21:33:36.254Z,100130.91
2023-03-05T21:36:02.960Z,100128.09
2023-03-05T21:38:30.874Z,100126.66
2023-03-05T21:40:58.644Z,100127.50
2023-03-05T21:43:26.478Z,100125.28
2023-03-05T21:45:54.803Z,100123.66
2023-03-05T21:48:22.404Z,100124.25
2023-03-05T21:50:50.094Z,100123.84
2023-03-05T21:53:17.807Z,100113.19
2023-03-05T21:56:03.097Z,100109.75
2023-03-05T21:58:34.292Z,100117.00
2023-03-05T22:01:01.382Z,100108.56
2023-03-05T22:03:28.656Z,100101.47
2023-03-05T22:05:55.733Z,100100.28
2023-03-05T22:08:22.829Z,100092.59
2023-03-05T22:10:50.241Z,100089.78
2023-03-05T22:13:18.023Z,100088.78
2023-03-05T22:15:45.993Z,100085.56
2023-03-05T22:18:14.905Z,100086.34
2023-03-05T22:20:42.084Z,100086.78
2023-03-05T22:23:08.718Z,100086.38
2023-03-05T22:25:35.888Z,100083.53
2023-03-05T22:28:04.067Z,100076.28
2023-03-05T22:30:32.180Z,100065.22
2023-03-05T22:33:01.173Z,100066.19
2023-03-05T22:35:28.259Z,100055.72
2023-03-05T22:37:55.045Z,100067.41
2023-03-05T22:40:22.136Z,100060.75
2023-03-05T22:42:49.278Z,100059.16
2023-03-05T22:45:17.532Z,100058.94
2023-03-05T22:47:47.504Z,100049.47
2023-03-05T22:50:14.462Z,100040.00
2023-03-05T22:52:41.213Z,100037.38
2023-03-05T22:55:08.088Z,100038.81
2023-03-05T22:57:34.622Z,100032.16
2023-03-05T23:00:01.240Z,100030.34
2023-03-05T23:02:27.804Z,100018.66
2023-03-05T23:04:57.177Z,100017.25
2023-03-05T23:07:29.655Z,100017.66
2023-03-05T23:10:01.232Z,100019.47
2023-03-05T23:12:30.695Z,100018.44
2023-03-05T23:15:01.729Z,100020.66
2023-03-05T23:17:28.347Z,100016.03
2023-03-05T23:19:55.225Z,100018.06
2023-03-05T23:22:21.999Z,100021.88
2023-03-05T23:24:48.533Z,100021.69
2023-03-05T23:27:17.305Z,100026.50
2023-03-05T23:30:08.206Z,100014.63
2023-03-05T23:32:35.972Z,100006.75
2023-03-05T23:35:02.516Z,100008.56
2023-03-05T23:37:29.016Z,100004.16
2023-03-05T23:39:55.563Z,100005.16
2023-03-05T23:42:22.141Z,99988.66
2023-03-05T23:44:48.729Z,99988.44
2023-03-05T23:47:15.277Z,99995.50
2023-03-05T23:49:41.874Z,99988.66
2023-03-05T23:52:08.428Z,99987.63
2023-03-05T23:54:34.909Z,99983.59
2023-03-05T23:57:01.415Z,99976.56
2023-03-05T23:59:28.243Z,99976.16
